Time;durP1;ratioP1;P1;durP2;ratioP2;P2;SDS_P1;SDS_P2;PMS_P1;PMS_P2;Temp;Humidity;BMP_temperature;BMP_pressure;BME280_temperature;BME280_humidity;BME280_pressure;Samples;Min_cycle;Max_cycle;Signal;HPM_P1;HPM_P2
2023/03/31 00:02:20;;;;;;;4.40;1.40;;;11.50;96.90;;;;;;5053982;28;20051;-68
2023/03/31 00:04:51;;;;;;;2.30;1.20;;;11.50;97.00;;;;;;5053543;28;20032;-69
2023/03/31 00:07:20;;;;;;;2.30;1.13;;;11.50;97.20;;;;;;5052432;28;20043;-69
2023/03/31 00:09:47;;;;;;;3.30;1.45;;;11.50;97.20;;;;;;5053926;28;20714;-69
2023/03/31 00:12:15;;;;;;;2.30;1.20;;;11.40;97.20;;;;;;5053640;28;20052;-69
2023/03/31 00:14:42;;;;;;;4.88;1.48;;;11.40;97.30;;;;;;5051979;28;20056;-69
2023/03/31 00:17:09;;;;;;;1.90;1.40;;;11.40;97.40;;;;;;5053210;28;20041;-69
2023/03/31 00:19:35;;;;;;;2.53;1.40;;;11.40;97.40;;;;;;5053168;28;20029;-69
2023/03/31 00:22:01;;;;;;;2.17;1.20;;;11.40;97.50;;;;;;5053701;28;20049;-69
2023/03/31 00:24:31;;;;;;;4.07;1.40;;;11.40;97.60;;;;;;5053044;28;20049;-69
2023/03/31 00:27:06;;;;;;;4.15;0.98;;;11.40;97.50;;;;;;5053322;28;20029;-69
2023/03/31 00:29:34;;;;;;;2.45;1.42;;;11.30;97.60;;;;;;5052817;28;20029;-68
2023/03/31 00:32:00;;;;;;;3.33;1.23;;;11.30;97.60;;;;;;5053201;28;20163;-68
2023/03/31 00:34:26;;;;;;;2.53;1.65;;;11.30;97.50;;;;;;5052628;28;20492;-69
2023/03/31 00:36:55;;;;;;;3.70;1.20;;;11.30;97.50;;;;;;5052918;28;20044;-68
2023/03/31 00:39:23;;;;;;;3.38;1.40;;;11.30;97.60;;;;;;5052947;28;20565;-69
2023/03/31 00:41:49;;;;;;;3.85;1.40;;;11.30;97.60;;;;;;5051996;28;20036;-69
2023/03/31 00:44:23;;;;;;;2.15;1.35;;;11.30;97.50;;;;;;5051519;28;20048;-68
2023/03/31 00:46:53;;;;;;;2.45;1.00;;;11.30;97.50;;;;;;5051613;28;20025;-68
2023/03/31 00:49:30;;;;;;;2.65;1.05;;;11.30;97.40;;;;;;5053696;28;20151;-68
2023/03/31 00:52:22;;;;;;;2.35;1.13;;;11.30;97.30;;;;;;5053348;28;20036;-68
2023/03/31 00:54:53;;;;;;;2.38;1.40;;;11.30;97.20;;;;;;5049889;28;20478;-70
2023/03/31 00:57:20;;;;;;;2.72;1.50;;;11.30;97.10;;;;;;5032729;28;20048;-68
2023/03/31 00:59:50;;;;;;;3.22;1.55;;;11.30;97.10;;;;;;5032365;28;20367;-67
2023/03/31 01:02:19;;;;;;;3.42;1.52;;;11.30;97.00;;;;;;5033030;28;20060;-67
2023/03/31 01:04:58;;;;;;;2.90;1.48;;;11.30;97.00;;;;;;5032561;28;20060;-69
2023/03/31 01:07:26;;;;;;;2.50;1.67;;;11.30;97.00;;;;;;5032825;28;20034;-74
2023/03/31 01:09:56;;;;;;;3.90;1.40;;;11.30;96.90;;;;;;5032880;28;20029;-69
2023/03/31 01:12:22;;;;;;;6.60;1.95;;;11.40;96.90;;;;;;5032806;28;20079;-68
2023/03/31 01:14:50;;;;;;;3.85;1.88;;;11.40;96.90;;;;;;5032397;28;20025;-68
2023/03/31 01:17:20;;;;;;;3.28;1.83;;;11.40;96.80;;;;;;5032950;28;20378;-68
2023/03/31 01:20:12;;;;;;;3.20;1.95;;;11.40;96.70;;;;;;5032494;28;20029;-68
2023/03/31 01:23:01;;;;;;;4.78;1.95;;;11.50;96.70;;;;;;5032323;28;20061;-68
2023/03/31 01:26:06;;;;;;;3.15;2.03;;;11.50;96.60;;;;;;5032332;28;20033;-69
2023/03/31 01:28:56;;;;;;;3.60;1.90;;;11.50;96.60;;;;;;5032174;28;20034;-68
2023/03/31 01:31:55;;;;;;;3.55;2.00;;;11.50;96.60;;;;;;5032691;28;20037;-68
2023/03/31 01:34:23;;;;;;;5.47;2.10;;;11.50;96.60;;;;;;5033000;28;20056;-68
2023/03/31 01:37:23;;;;;;;6.97;2.00;;;11.50;96.50;;;;;;5030508;28;20061;-68
2023/03/31 01:39:57;;;;;;;3.63;2.10;;;11.50;96.50;;;;;;5031800;28;20528;-69
2023/03/31 01:42:34;;;;;;;4.05;2.10;;;11.50;96.50;;;;;;5032616;28;20032;-69
2023/03/31 01:45:44;;;;;;;4.75;2.20;;;11.50;96.50;;;;;;5032178;28;20446;-68
2023/03/31 01:48:20;;;;;;;5.20;2.13;;;11.50;96.50;;;;;;5023995;28;20050;-69
2023/03/31 01:50:58;;;;;;;3.63;2.05;;;11.50;96.50;;;;;;5032168;28;20029;-68
2023/03/31 01:53:55;;;;;;;4.07;1.90;;;11.50;96.40;;;;;;5033211;28;20041;-68
2023/03/31 01:56:32;;;;;;;3.55;2.45;;;11.50;96.40;;;;;;5036467;28;20095;-68
2023/03/31 01:59:10;;;;;;;5.00;2.28;;;11.50;96.40;;;;;;5036199;28;20025;-68
2023/03/31 02:01:46;;;;;;;4.38;2.28;;;11.50;96.70;;;;;;5034580;28;20076;-68
2023/03/31 02:04:29;;;;;;;6.40;2.90;;;11.50;96.50;;;;;;5036260;28;20413;-69
2023/03/31 02:07:03;;;;;;;9.45;2.40;;;11.50;96.50;;;;;;5048042;28;20135;-69
2023/03/31 02:09:34;;;;;;;3.90;2.28;;;11.50;96.40;;;;;;5056077;28;20029;-70
2023/03/31 02:12:05;;;;;;;4.07;2.72;;;11.50;96.40;;;;;;5055928;28;20025;-69
2023/03/31 02:14:33;;;;;;;5.53;2.72;;;11.50;96.50;;;;;;5055630;28;20036;-70
2023/03/31 02:17:02;;;;;;;8.05;2.30;;;11.50;96.50;;;;;;5055813;28;20028;-69
2023/03/31 02:19:38;;;;;;;4.82;2.53;;;11.50;96.50;;;;;;5055807;28;20515;-69
2023/03/31 02:22:07;;;;;;;5.55;2.60;;;11.50;96.50;;;;;;5055958;28;20203;-69
2023/03/31 02:24:35;;;;;;;5.57;2.53;;;11.50;96.40;;;;;;5055334;28;20071;-69
2023/03/31 02:27:08;;;;;;;4.47;2.88;;;11.50;96.50;;;;;;5055842;28;20029;-69
2023/03/31 02:29:34;;;;;;;6.28;2.92;;;11.40;96.50;;;;;;5055242;28;20027;-69
2023/03/31 02:32:15;;;;;;;4.75;2.90;;;11.40;96.60;;;;;;5053951;28;20029;-69
2023/03/31 02:34:41;;;;;;;6.75;3.00;;;11.40;96.70;;;;;;5055221;28;20032;-69
2023/03/31 02:37:07;;;;;;;4.47;2.70;;;11.40;96.60;;;;;;5055388;28;20041;-68
2023/03/31 02:39:35;;;;;;;5.20;2.83;;;11.40;96.70;;;;;;5054839;28;20037;-68
2023/03/31 02:42:06;;;;;;;4.65;2.53;;;11.40;96.60;;;;;;5055204;28;20050;-68
2023/03/31 02:44:37;;;;;;;3.90;2.92;;;11.30;96.60;;;;;;5054987;28;20144;-69
2023/03/31 02:47:05;;;;;;;;;;;11.30;96.50;;;;;;5055896;28;20466;-68
2023/03/31 02:49:31;;;;;;;8.63;2.78;;;11.30;96.50;;;;;;5055040;28;19905;-68
2023/03/31 02:52:33;;;;;;;5.50;2.58;;;11.30;96.50;;;;;;5055368;28;20025;-68
2023/03/31 02:55:17;;;;;;;4.80;2.50;;;11.30;96.40;;;;;;5034961;28;20027;-68
2023/03/31 02:58:11;;;;;;;4.88;2.75;;;11.20;96.40;;;;;;5034563;28;20083;-68
2023/03/31 03:00:45;;;;;;;6.55;2.53;;;11.20;96.50;;;;;;5053690;28;20485;-69
2023/03/31 03:03:32;;;;;;;10.30;2.42;;;11.20;96.50;;;;;;5054945;28;20462;-68
2023/03/31 03:06:01;;;;;;;7.32;2.80;;;11.10;96.60;;;;;;5053430;28;20078;-68
2023/03/31 03:08:38;;;;;;;5.82;2.60;;;11.10;96.60;;;;;;5054874;28;20029;-69
2023/03/31 03:11:16;;;;;;;6.13;2.30;;;11.10;96.60;;;;;;5054449;28;20049;-68
2023/03/31 03:14:05;;;;;;;4.75;2.67;;;11.10;96.60;;;;;;5054359;28;20351;-68
2023/03/31 03:16:48;;;;;;;5.13;2.80;;;11.00;96.60;;;;;;5054648;28;20025;-68
2023/03/31 03:19:20;;;;;;;8.48;2.75;;;11.10;96.70;;;;;;5054730;28;20029;-68
2023/03/31 03:21:46;;;;;;;6.45;2.67;;;11.00;96.60;;;;;;5054169;28;20048;-68
2023/03/31 03:24:15;;;;;;;3.47;2.33;;;11.00;96.70;;;;;;5054485;28;20045;-68
2023/03/31 03:26:41;;;;;;;6.82;2.90;;;10.90;96.80;;;;;;5054022;28;20028;-69
2023/03/31 03:29:07;;;;;;;4.65;2.38;;;10.90;96.70;;;;;;5054485;28;20036;-69
2023/03/31 03:31:33;;;;;;;4.82;2.78;;;10.90;96.70;;;;;;5054704;28;20110;-69
2023/03/31 03:33:59;;;;;;;6.38;2.88;;;10.90;96.70;;;;;;5053895;28;20068;-68
2023/03/31 03:36:25;;;;;;;5.45;2.38;;;10.90;96.70;;;;;;5054285;28;20091;-69
2023/03/31 03:38:51;;;;;;;4.90;2.60;;;10.80;96.80;;;;;;5053789;28;20477;-69
2023/03/31 03:41:17;;;;;;;4.20;2.55;;;10.80;97.00;;;;;;5054115;28;20401;-69
2023/03/31 03:43:42;;;;;;;4.18;2.63;;;10.80;97.00;;;;;;5053814;28;20466;-69
2023/03/31 03:46:08;;;;;;;5.88;2.90;;;10.80;97.10;;;;;;5053867;28;20078;-69
2023/03/31 03:48:34;;;;;;;6.95;2.72;;;10.80;97.10;;;;;;5054171;28;20029;-69
2023/03/31 03:51:00;;;;;;;6.00;2.53;;;10.70;97.20;;;;;;5053322;28;20432;-69
2023/03/31 03:53:26;;;;;;;4.47;2.20;;;10.70;97.20;;;;;;5054178;28;20033;-69
2023/03/31 03:55:52;;;;;;;4.75;2.35;;;10.70;97.30;;;;;;5053555;28;20101;-69
2023/03/31 03:58:18;;;;;;;4.80;2.45;;;10.70;97.30;;;;;;5053889;28;20112;-69
2023/03/31 04:00:45;;;;;;;6.25;2.60;;;10.70;97.40;;;;;;5053515;28;20040;-69
2023/03/31 04:03:11;;;;;;;5.35;2.45;;;10.60;97.30;;;;;;5053389;28;20390;-69
2023/03/31 04:05:37;;;;;;;5.72;2.50;;;10.60;97.30;;;;;;5053709;28;20021;-69
2023/03/31 04:08:04;;;;;;;8.52;2.70;;;10.60;97.30;;;;;;5053417;28;20481;-69
2023/03/31 04:10:30;;;;;;;5.22;2.13;;;10.60;97.30;;;;;;5053579;28;20037;-68
2023/03/31 04:12:56;;;;;;;6.88;2.60;;;10.60;97.30;;;;;;5052998;28;20388;-68
2023/03/31 04:15:22;;;;;;;7.22;2.20;;;10.60;97.20;;;;;;5053698;28;20036;-68
2023/03/31 04:17:49;;;;;;;4.47;2.40;;;10.60;97.20;;;;;;5052641;28;20095;-68
2023/03/31 04:20:16;;;;;;;5.28;2.30;;;10.60;97.20;;;;;;5053401;28;20037;-68
2023/03/31 04:22:45;;;;;;;4.03;2.20;;;10.60;97.10;;;;;;5053080;28;20049;-68
2023/03/31 04:25:16;;;;;;;6.57;2.28;;;10.60;97.10;;;;;;5052471;28;20425;-68
2023/03/31 04:27:53;;;;;;;3.97;2.17;;;10.60;97.00;;;;;;5053671;28;20029;-70
2023/03/31 04:30:23;;;;;;;4.13;2.17;;;10.60;97.00;;;;;;5055809;28;20416;-68
2023/03/31 04:32:56;;;;;;;5.32;2.15;;;10.50;97.00;;;;;;5053716;28;20025;-68
2023/03/31 04:35:23;;;;;;;8.98;2.40;;;10.50;96.90;;;;;;5053072;28;20083;-68
2023/03/31 04:37:57;;;;;;;7.05;2.30;;;10.60;97.00;;;;;;5052801;28;20036;-69
2023/03/31 04:40:24;;;;;;;5.60;2.30;;;10.50;96.90;;;;;;5053121;28;20024;-68
2023/03/31 04:42:50;;;;;;;4.82;2.60;;;10.50;96.80;;;;;;5052791;28;20437;-67
2023/03/31 04:45:16;;;;;;;4.93;2.53;;;10.60;96.80;;;;;;5053258;28;20389;-67
2023/03/31 04:47:42;;;;;;;6.55;2.97;;;10.50;96.80;;;;;;5053057;28;20037;-68
2023/03/31 04:50:09;;;;;;;6.50;2.90;;;10.50;96.80;;;;;;5052985;28;20047;-68
2023/03/31 04:52:36;;;;;;;7.97;3.42;;;10.50;96.80;;;;;;5052927;28;20029;-68
2023/03/31 04:55:02;;;;;;;7.03;2.78;;;10.50;96.80;;;;;;5052497;28;20487;-68
2023/03/31 04:57:28;;;;;;;6.85;2.83;;;10.50;96.90;;;;;;5052469;28;20040;-68
2023/03/31 04:59:53;;;;;;;7.20;3.00;;;10.50;97.00;;;;;;5052017;28;20390;-68
2023/03/31 05:02:23;;;;;;;7.32;2.60;;;10.50;97.10;;;;;;5052907;28;20100;-67
2023/03/31 05:04:49;;;;;;;14.18;3.38;;;10.50;97.20;;;;;;5051938;28;20032;-67
2023/03/31 05:07:18;;;;;;;8.85;3.15;;;10.50;97.20;;;;;;5052595;28;20036;-69
2023/03/31 05:09:44;;;;;;;5.90;3.05;;;10.40;97.30;;;;;;5052834;28;20029;-74
2023/03/31 05:12:10;;;;;;;8.82;2.97;;;10.40;97.30;;;;;;5052721;28;20044;-68
2023/03/31 05:14:36;;;;;;;7.18;3.10;;;10.40;97.40;;;;;;5052750;28;20048;-68
2023/03/31 05:17:02;;;;;;;9.98;3.10;;;10.40;97.50;;;;;;5052383;28;20037;-68
2023/03/31 05:19:27;;;;;;;10.50;3.70;;;10.40;97.50;;;;;;5052902;28;20028;-69
2023/03/31 05:21:53;;;;;;;11.45;3.47;;;10.40;97.50;;;;;;5052030;28;20116;-69
2023/03/31 05:24:19;;;;;;;6.78;3.35;;;10.40;97.60;;;;;;5051009;28;20139;-68
2023/03/31 05:26:51;;;;;;;8.98;3.42;;;10.50;97.80;;;;;;5052539;28;20024;-68
2023/03/31 05:29:20;;;;;;;7.15;3.25;;;10.50;97.70;;;;;;5053860;28;20072;-68
2023/03/31 05:31:46;;;;;;;6.90;3.05;;;10.50;97.60;;;;;;5055423;28;20117;-68
2023/03/31 05:34:13;;;;;;;8.18;3.67;;;10.50;97.70;;;;;;5056594;28;20033;-68
2023/03/31 05:36:39;;;;;;;7.55;3.50;;;10.50;97.60;;;;;;5056572;28;20033;-68
2023/03/31 05:39:05;;;;;;;9.55;3.90;;;10.50;97.70;;;;;;5056194;28;20105;-67
2023/03/31 05:41:31;;;;;;;7.55;3.75;;;10.60;97.90;;;;;;5056470;28;20063;-68
2023/03/31 05:43:56;;;;;;;8.57;3.53;;;10.70;97.60;;;;;;5055959;28;20044;-69
2023/03/31 05:46:22;;;;;;;5.72;3.70;;;10.80;97.50;;;;;;5056421;28;20033;-68
2023/03/31 05:48:48;;;;;;;10.35;3.20;;;10.80;97.30;;;;;;5056059;28;20075;-73
2023/03/31 05:51:13;;;;;;;8.98;3.40;;;10.90;97.20;;;;;;5055011;28;20032;-67
2023/03/31 05:53:40;;;;;;;5.45;3.22;;;10.90;97.00;;;;;;5055976;28;20021;-67
2023/03/31 05:56:07;;;;;;;6.05;3.42;;;11.00;97.00;;;;;;5055656;28;20043;-67
2023/03/31 05:58:36;;;;;;;8.30;3.60;;;11.10;96.70;;;;;;5056134;28;20126;-69
2023/03/31 06:01:07;;;;;;;6.32;3.08;;;11.10;96.60;;;;;;5054550;28;20033;-69
2023/03/31 06:03:35;;;;;;;9.27;4.03;;;11.20;96.30;;;;;;5056104;28;20067;-69
2023/03/31 06:06:02;;;;;;;4.53;2.95;;;11.20;96.00;;;;;;5055581;28;20428;-69
2023/03/31 06:08:28;;;;;;;9.05;3.08;;;11.30;95.80;;;;;;5055812;28;20025;-67
2023/03/31 06:10:54;;;;;;;6.60;3.33;;;11.40;95.70;;;;;;5055588;28;20495;-69
2023/03/31 06:13:20;;;;;;;6.05;2.75;;;11.50;95.40;;;;;;5055590;28;20029;-68
2023/03/31 06:15:56;;;;;;;7.45;3.10;;;11.50;95.40;;;;;;5055614;28;20055;-68
2023/03/31 06:18:22;;;;;;;10.52;2.80;;;11.60;95.00;;;;;;5055761;28;20017;-68
2023/03/31 06:20:48;;;;;;;7.00;2.40;;;11.80;94.90;;;;;;5055378;28;20082;-68
2023/03/31 06:23:14;;;;;;;6.20;2.60;;;11.90;94.50;;;;;;5055460;28;20465;-68
2023/03/31 06:25:40;;;;;;;4.65;2.38;;;12.00;94.10;;;;;;5055565;28;20067;-69
2023/03/31 06:28:06;;;;;;;5.40;2.22;;;12.10;93.70;;;;;;5054839;28;20029;-68
2023/03/31 06:30:32;;;;;;;9.18;2.67;;;12.20;93.40;;;;;;5055469;28;20033;-68
2023/03/31 06:32:58;;;;;;;5.57;2.25;;;12.40;92.90;;;;;;5054814;28;20021;-68
2023/03/31 06:35:24;;;;;;;6.07;2.53;;;12.50;92.10;;;;;;5054400;28;20025;-69
2023/03/31 06:37:49;;;;;;;5.32;2.35;;;12.60;91.40;;;;;;5054908;28;20037;-69
2023/03/31 06:40:15;;;;;;;6.28;2.33;;;12.70;91.20;;;;;;5054828;28;20115;-69
2023/03/31 06:42:41;;;;;;;8.98;2.47;;;12.90;90.90;;;;;;5055296;28;20492;-68
2023/03/31 06:45:07;;;;;;;6.32;2.47;;;13.00;90.00;;;;;;5053431;28;20053;-69
2023/03/31 06:47:33;;;;;;;5.35;2.22;;;13.20;90.20;;;;;;5055015;28;20032;-69
2023/03/31 06:49:59;;;;;;;7.90;2.83;;;13.30;87.90;;;;;;5054738;28;20350;-69
2023/03/31 06:52:25;;;;;;;8.60;2.30;;;13.50;87.50;;;;;;5055049;28;20045;-67
2023/03/31 06:54:51;;;;;;;6.82;2.72;;;13.60;87.20;;;;;;5054494;28;20025;-68
2023/03/31 06:57:17;;;;;;;8.30;2.97;;;13.80;86.50;;;;;;5053658;28;20366;-68
2023/03/31 06:59:42;;;;;;;10.50;2.90;;;13.90;85.00;;;;;;5054570;28;20511;-69
2023/03/31 07:02:09;;;;;;;9.27;2.85;;;14.00;84.30;;;;;;5052492;28;20025;-69
2023/03/31 07:04:35;;;;;;;8.70;2.58;;;14.00;81.90;;;;;;5054655;28;20021;-68
2023/03/31 07:07:01;;;;;;;11.70;2.70;;;14.10;81.00;;;;;;5054317;28;20032;-69
2023/03/31 07:09:27;;;;;;;10.25;2.85;;;14.10;81.20;;;;;;5054665;28;20029;-69
2023/03/31 07:11:52;;;;;;;11.60;3.28;;;14.20;81.40;;;;;;5053863;28;20059;-68
2023/03/31 07:14:18;;;;;;;7.20;3.08;;;14.30;80.20;;;;;;5053786;28;20022;-68
2023/03/31 07:16:44;;;;;;;7.82;2.90;;;15.00;81.50;;;;;;5054462;28;20037;-67
2023/03/31 07:19:09;;;;;;;4.85;2.55;;;15.50;75.80;;;;;;5054092;28;20025;-69
2023/03/31 07:21:36;;;;;;;5.65;2.88;;;15.60;74.40;;;;;;5054605;28;20044;-69
2023/03/31 07:24:02;;;;;;;9.18;3.10;;;15.50;73.60;;;;;;5054342;28;20111;-68
2023/03/31 07:26:28;;;;;;;6.35;2.58;;;15.40;73.70;;;;;;5053909;28;20480;-69
2023/03/31 07:28:56;;;;;;;5.72;2.40;;;15.30;73.80;;;;;;5054649;28;20024;-69
2023/03/31 07:31:22;;;;;;;9.95;2.60;;;15.30;73.30;;;;;;5053851;28;20067;-69
2023/03/31 07:33:47;;;;;;;8.75;2.53;;;15.20;73.80;;;;;;5052926;28;20032;-69
2023/03/31 07:36:13;;;;;;;5.10;2.40;;;15.10;74.80;;;;;;5053694;28;20035;-69
2023/03/31 07:38:41;;;;;;;9.52;2.70;;;15.10;74.50;;;;;;5054298;28;20036;-69
2023/03/31 07:41:10;;;;;;;5.47;2.40;;;15.00;74.50;;;;;;5053710;28;20454;-68
2023/03/31 07:43:36;;;;;;;6.05;3.13;;;15.00;75.20;;;;;;5053557;28;20408;-70
2023/03/31 07:46:04;;;;;;;9.05;3.13;;;15.00;75.50;;;;;;5053161;28;20136;-69
2023/03/31 07:48:30;;;;;;;4.68;2.03;;;15.00;76.00;;;;;;5053836;28;20021;-69
2023/03/31 07:50:55;;;;;;;5.40;2.45;;;15.00;75.50;;;;;;5053191;28;20036;-69
2023/03/31 07:53:21;;;;;;;5.15;2.53;;;14.90;75.20;;;;;;5053305;28;20029;-69
2023/03/31 07:55:47;;;;;;;7.10;2.30;;;14.80;75.60;;;;;;5052490;28;20029;-70
2023/03/31 07:58:13;;;;;;;6.75;1.90;;;14.70;75.30;;;;;;5053770;28;20045;-69
2023/03/31 08:00:38;;;;;;;3.72;2.00;;;14.80;75.80;;;;;;5053995;28;20025;-69
2023/03/31 08:03:05;;;;;;;4.10;2.05;;;15.20;76.20;;;;;;5054859;28;20087;-69
2023/03/31 08:05:31;;;;;;;4.35;2.13;;;16.10;75.40;;;;;;5055965;28;20040;-69
2023/03/31 08:07:57;;;;;;;5.95;2.28;;;17.30;71.80;;;;;;5054433;28;20032;-69
2023/03/31 08:10:25;;;;;;;5.22;1.90;;;17.60;67.40;;;;;;5053800;28;20039;-69
2023/03/31 08:12:51;;;;;;;5.60;1.80;;;17.50;64.90;;;;;;5053650;28;20021;-69
2023/03/31 08:15:17;;;;;;;4.30;2.13;;;17.40;65.30;;;;;;5053501;28;20044;-70
2023/03/31 08:17:43;;;;;;;7.65;2.00;;;17.10;63.70;;;;;;5053477;28;20036;-69
2023/03/31 08:20:10;;;;;;;5.38;2.05;;;16.90;63.60;;;;;;5053141;28;20029;-69
2023/03/31 08:22:36;;;;;;;4.65;2.08;;;16.70;64.20;;;;;;5053287;28;20194;-69
2023/03/31 08:25:04;;;;;;;4.90;2.10;;;16.60;64.80;;;;;;5052675;28;20183;-70
2023/03/31 08:27:39;;;;;;;4.60;1.83;;;16.50;65.10;;;;;;5053212;28;20480;-68
2023/03/31 08:30:06;;;;;;;5.90;1.80;;;16.30;65.10;;;;;;5052690;28;20025;-70
2023/03/31 08:32:33;;;;;;;5.82;2.13;;;16.20;65.20;;;;;;5053212;28;20025;-69
2023/03/31 08:34:59;;;;;;;3.65;1.65;;;16.10;66.00;;;;;;5053233;28;20126;-70
2023/03/31 08:37:27;;;;;;;4.70;1.92;;;16.00;66.70;;;;;;5052648;28;20394;-69
2023/03/31 08:39:56;;;;;;;6.05;2.35;;;16.00;67.00;;;;;;5052642;28;20389;-69
2023/03/31 08:42:29;;;;;;;2.90;2.13;;;15.80;67.40;;;;;;5052637;28;20033;-68
2023/03/31 08:45:07;;;;;;;3.70;1.85;;;15.70;69.20;;;;;;5052589;28;20084;-69
2023/03/31 08:47:35;;;;;;;4.97;2.30;;;15.60;70.00;;;;;;5052841;28;20032;-69
2023/03/31 08:50:14;;;;;;;8.85;2.42;;;15.50;70.80;;;;;;5052762;28;20032;-69
2023/03/31 08:53:11;;;;;;;4.85;1.98;;;15.40;71.50;;;;;;5052702;28;20469;-70
2023/03/31 08:55:48;;;;;;;7.03;2.70;;;15.30;72.40;;;;;;5050320;28;20037;-69
2023/03/31 08:58:30;;;;;;;3.60;2.10;;;15.10;73.00;;;;;;5052520;28;20029;-69
2023/03/31 09:01:04;;;;;;;7.70;2.58;;;15.10;74.20;;;;;;5052723;28;20125;-70
2023/03/31 09:04:03;;;;;;;6.57;3.28;;;15.10;74.10;;;;;;5051327;28;20039;-70
2023/03/31 09:06:46;;;;;;;10.23;2.97;;;15.10;74.80;;;;;;5046683;28;20036;-70
2023/03/31 09:09:30;;;;;;;7.35;2.88;;;15.10;75.20;;;;;;5052221;28;20021;-70
2023/03/31 09:12:00;;;;;;;7.53;2.55;;;15.10;75.80;;;;;;5051827;28;20071;-70
2023/03/31 09:14:52;;;;;;;7.88;2.97;;;15.00;76.30;;;;;;5052050;28;20017;-69
2023/03/31 09:17:29;;;;;;;13.18;3.30;;;15.00;76.70;;;;;;5051127;28;20041;-71
2023/03/31 09:20:08;;;;;;;5.55;3.33;;;15.00;77.30;;;;;;5052542;28;20033;-69
2023/03/31 09:22:45;;;;;;;5.80;3.00;;;15.00;77.40;;;;;;5052518;28;20025;-69
2023/03/31 09:25:19;;;;;;;10.98;3.78;;;15.00;77.80;;;;;;5050594;28;20564;-71
2023/03/31 09:27:46;;;;;;;7.18;3.10;;;14.90;77.60;;;;;;5052407;28;20032;-69
2023/03/31 09:30:13;;;;;;;9.88;3.42;;;14.90;77.00;;;;;;5051990;28;20087;-69
2023/03/31 09:32:39;;;;;;;6.80;3.50;;;14.90;77.20;;;;;;5052206;28;20033;-69
2023/03/31 09:35:20;;;;;;;6.82;3.85;;;14.90;77.20;;;;;;5051946;28;20108;-69
2023/03/31 09:37:47;;;;;;;3.30;2.72;;;14.90;77.00;;;;;;5052178;28;20145;-69
2023/03/31 09:40:17;;;;;;;6.28;3.55;;;14.90;77.40;;;;;;5051808;28;20082;-68
2023/03/31 09:42:44;;;;;;;5.88;3.47;;;14.90;76.60;;;;;;5052140;28;20028;-69
2023/03/31 09:45:18;;;;;;;9.77;3.40;;;14.90;76.50;;;;;;5050513;28;20122;-68
2023/03/31 09:47:50;;;;;;;4.95;2.88;;;14.90;76.30;;;;;;5051343;28;20037;-69
2023/03/31 09:50:16;;;;;;;5.30;3.30;;;15.00;76.30;;;;;;5052876;28;20021;-69
2023/03/31 09:52:48;;;;;;;7.07;3.08;;;15.00;76.30;;;;;;5052181;28;20236;-69
2023/03/31 09:55:28;;;;;;;6.72;3.35;;;15.00;76.30;;;;;;5051639;28;20491;-70
2023/03/31 09:57:53;;;;;;;7.25;3.33;;;15.00;76.30;;;;;;5051999;28;20037;-69
2023/03/31 10:00:22;;;;;;;8.55;3.25;;;15.10;76.60;;;;;;5051700;28;20369;-69
2023/03/31 10:02:52;;;;;;;7.90;3.20;;;15.00;76.50;;;;;;5052204;28;20025;-68
2023/03/31 10:05:28;;;;;;;7.38;3.38;;;15.10;76.70;;;;;;5051399;28;20028;-69
2023/03/31 10:08:18;;;;;;;7.53;3.17;;;15.10;76.60;;;;;;5052003;28;20051;-68
2023/03/31 10:10:56;;;;;;;6.43;3.38;;;15.10;76.30;;;;;;5052084;28;20021;-68
2023/03/31 10:13:28;;;;;;;6.57;3.10;;;15.10;75.70;;;;;;5051642;28;20043;-69
2023/03/31 10:16:01;;;;;;;5.70;3.17;;;15.20;75.50;;;;;;5055528;28;20060;-69
2023/03/31 10:18:39;;;;;;;6.18;3.15;;;15.20;74.40;;;;;;5055591;28;20037;-70
2023/03/31 10:21:17;;;;;;;6.15;3.50;;;15.20;74.10;;;;;;5055401;28;20021;-70
2023/03/31 10:23:46;;;;;;;4.13;2.97;;;15.20;74.50;;;;;;5055985;28;20107;-69
2023/03/31 10:26:22;;;;;;;5.72;3.38;;;15.20;74.80;;;;;;5053923;28;20033;-69
2023/03/31 10:28:51;;;;;;;7.95;3.53;;;15.20;74.10;;;;;;5055430;28;20029;-70
2023/03/31 10:31:34;;;;;;;5.20;3.17;;;15.20;73.60;;;;;;5054900;28;20025;-69
2023/03/31 10:34:10;;;;;;;5.80;3.17;;;15.20;73.40;;;;;;5055366;28;20060;-69
2023/03/31 10:36:36;;;;;;;7.25;3.30;;;15.20;73.20;;;;;;5055400;28;20037;-69
2023/03/31 10:39:06;;;;;;;5.47;2.92;;;15.30;72.00;;;;;;5055278;28;20025;-68
2023/03/31 10:41:32;;;;;;;3.80;2.58;;;15.30;70.70;;;;;;5054849;28;20450;-69
2023/03/31 10:44:03;;;;;;;7.03;3.05;;;15.40;70.20;;;;;;5055032;28;20381;-69
2023/03/31 10:46:51;;;;;;;7.33;3.67;;;15.40;68.80;;;;;;5054913;28;20041;-70
2023/03/31 10:49:20;;;;;;;5.15;2.65;;;15.50;69.10;;;;;;5054197;28;20764;-69
2023/03/31 10:52:19;;;;;;;8.80;3.20;;;15.60;69.30;;;;;;5054840;28;20033;-68
2023/03/31 10:54:51;;;;;;;6.63;2.58;;;15.60;68.90;;;;;;5054896;28;20017;-69
2023/03/31 10:57:20;;;;;;;4.60;2.67;;;15.60;68.50;;;;;;5054450;28;20025;-70
2023/03/31 11:00:11;;;;;;;3.78;2.20;;;15.60;67.70;;;;;;5054239;28;20477;-70
2023/03/31 11:02:55;;;;;;;5.32;2.72;;;15.60;67.60;;;;;;5054386;28;20144;-70
2023/03/31 11:05:46;;;;;;;4.97;3.25;;;15.60;68.00;;;;;;5053678;28;20091;-69
2023/03/31 11:08:50;;;;;;;5.60;2.95;;;15.60;67.60;;;;;;5054786;28;20029;-70
2023/03/31 11:11:38;;;;;;;7.18;2.80;;;15.60;67.60;;;;;;5054030;28;20083;-70
2023/03/31 11:14:23;;;;;;;3.65;2.45;;;15.70;68.20;;;;;;5054175;28;20021;-70
2023/03/31 11:17:04;;;;;;;5.18;2.40;;;15.70;67.70;;;;;;5054480;28;20029;-69
2023/03/31 11:19:54;;;;;;;7.47;3.50;;;15.70;67.10;;;;;;5054163;28;20036;-70
2023/03/31 11:22:29;;;;;;;3.40;2.60;;;15.80;67.50;;;;;;5054123;28;20060;-70
2023/03/31 11:25:20;;;;;;;9.45;2.70;;;15.70;67.20;;;;;;5054516;28;20354;-70
2023/03/31 11:28:04;;;;;;;4.82;2.60;;;15.70;66.90;;;;;;5054126;28;20067;-69
2023/03/31 11:31:07;;;;;;;5.35;2.83;;;15.80;66.70;;;;;;5053798;28;20068;-70
2023/03/31 11:33:44;;;;;;;6.38;2.90;;;15.90;66.80;;;;;;5053637;28;20363;-70
2023/03/31 11:36:10;;;;;;;13.30;2.72;;;16.00;66.40;;;;;;5054202;28;20028;-69
2023/03/31 11:38:49;;;;;;;8.98;3.20;;;16.10;65.90;;;;;;5053727;28;20652;-69
2023/03/31 11:41:38;;;;;;;4.03;2.90;;;16.20;66.50;;;;;;5053995;28;20033;-79
2023/03/31 11:44:08;;;;;;;5.60;3.30;;;16.20;66.50;;;;;;5053747;28;20052;-69
2023/03/31 11:46:51;;;;;;;4.27;2.83;;;16.30;68.00;;;;;;5053561;28;20361;-70
2023/03/31 11:49:23;;;;;;;4.43;3.00;;;16.40;68.50;;;;;;5053772;28;20258;-70
2023/03/31 11:51:56;;;;;;;4.60;2.67;;;16.50;67.40;;;;;;5053883;28;20029;-70
2023/03/31 11:54:43;;;;;;;3.58;2.30;;;16.60;67.60;;;;;;5053495;28;20025;-69
2023/03/31 11:57:20;;;;;;;5.15;2.90;;;16.70;68.00;;;;;;5053781;28;20028;-69
2023/03/31 11:59:53;;;;;;;6.40;2.88;;;16.80;67.70;;;;;;5053975;28;20037;-70
2023/03/31 12:02:31;;;;;;;7.55;3.50;;;16.90;66.80;;;;;;5053027;28;20474;-70
2023/03/31 12:04:57;;;;;;;4.85;3.00;;;17.00;66.70;;;;;;5053521;28;20041;-69
2023/03/31 12:07:33;;;;;;;5.07;2.65;;;17.00;65.70;;;;;;5053511;28;20378;-69
2023/03/31 12:10:10;;;;;;;4.57;2.80;;;17.10;64.70;;;;;;5052457;28;20033;-69
2023/03/31 12:12:44;;;;;;;4.50;2.63;;;17.20;64.20;;;;;;5051864;28;20060;-69
2023/03/31 12:15:19;;;;;;;4.35;2.63;;;17.20;63.00;;;;;;5053367;28;20024;-69
2023/03/31 12:17:53;;;;;;;5.53;2.47;;;17.10;63.30;;;;;;5051958;28;20551;-68
2023/03/31 12:20:36;;;;;;;4.53;2.53;;;17.10;63.90;;;;;;5052638;28;20426;-76
2023/03/31 12:23:05;;;;;;;5.50;2.95;;;17.10;63.70;;;;;;5053059;28;20091;-69
2023/03/31 12:25:50;;;;;;;16.23;3.03;;;17.10;64.20;;;;;;5052622;28;20090;-68
2023/03/31 12:28:18;;;;;;;5.40;2.40;;;17.00;63.50;;;;;;5052787;28;20040;-69
2023/03/31 12:30:46;;;;;;;7.13;2.40;;;17.00;63.00;;;;;;5052855;28;20511;-70
2023/03/31 12:33:21;;;;;;;5.85;2.45;;;17.00;63.70;;;;;;5053134;28;20025;-69
2023/03/31 12:36:26;;;;;;;5.85;2.78;;;16.90;62.20;;;;;;5052956;28;20416;-69
2023/03/31 12:39:11;;;;;;;4.43;2.60;;;16.80;63.30;;;;;;5029734;28;20129;-69
2023/03/31 12:41:55;;;;;;;5.93;2.83;;;16.80;63.20;;;;;;5052530;28;20112;-70
2023/03/31 12:44:40;;;;;;;7.78;2.83;;;16.70;63.00;;;;;;5052148;28;20052;-69
2023/03/31 12:47:11;;;;;;;7.82;2.90;;;16.70;63.50;;;;;;5052779;28;20040;-70
2023/03/31 12:49:46;;;;;;;8.90;3.25;;;16.70;64.10;;;;;;5052316;28;20071;-70
2023/03/31 12:52:26;;;;;;;3.97;2.72;;;16.80;64.50;;;;;;5052928;28;20036;-69
2023/03/31 12:55:27;;;;;;;7.90;2.67;;;16.90;64.60;;;;;;5052709;28;20095;-69
2023/03/31 12:58:33;;;;;;;6.85;3.15;;;17.00;64.00;;;;;;5052643;28;20047;-69
2023/03/31 13:01:18;;;;;;;6.80;2.70;;;17.00;64.20;;;;;;5052466;28;20025;-69
2023/03/31 13:04:09;;;;;;;4.88;2.92;;;17.10;63.70;;;;;;5052305;28;20383;-70
2023/03/31 13:06:37;;;;;;;4.13;2.67;;;17.10;62.70;;;;;;5052170;28;20021;-69
2023/03/31 13:09:10;;;;;;;6.18;2.75;;;17.10;61.50;;;;;;5052367;28;20025;-70
2023/03/31 13:11:39;;;;;;;4.07;2.67;;;17.10;61.90;;;;;;5051871;28;20032;-69
2023/03/31 13:14:29;;;;;;;7.97;3.13;;;17.10;62.30;;;;;;5049158;28;20362;-69